sensor_id;sensor_type;location;lat;lon;timestamp;pressure;altitude;pressure_sealevel;temperature;humidity
67931;BME280;54726;52.000;5.954;2022-09-03T00:01:04;100807.56;;;16.48;47.24
67931;BME280;54726;52.000;5.954;2022-09-03T00:02:13;100816.34;;;16.50;47.16
67931;BME280;54726;52.000;5.954;2022-09-03T00:03:18;100817.41;;;16.47;47.25
67931;BME280;54726;52.000;5.954;2022-09-03T00:04:25;100809.47;;;16.46;47.53
67931;BME280;54726;52.000;5.954;2022-09-03T00:05:31;100806.03;;;16.44;47.45
67931;BME280;54726;52.000;5.954;2022-09-03T00:06:38;100814.81;;;16.46;47.56
67931;BME280;54726;52.000;5.954;2022-09-03T00:07:46;100809.47;;;16.46;47.44
67931;BME280;54726;52.000;5.954;2022-09-03T00:08:53;100813.13;;;16.45;47.34
67931;BME280;54726;52.000;5.954;2022-09-03T00:09:58;100803.56;;;16.41;47.45
67931;BME280;54726;52.000;5.954;2022-09-03T00:11:03;100802.81;;;16.39;47.48
67931;BME280;54726;52.000;5.954;2022-09-03T00:12:09;100811.59;;;16.41;47.85
67931;BME280;54726;52.000;5.954;2022-09-03T00:13:13;100809.78;;;16.41;47.61
67931;BME280;54726;52.000;5.954;2022-09-03T00:14:18;100803.66;;;16.39;47.71
67931;BME280;54726;52.000;5.954;2022-09-03T00:15:21;100803.97;;;16.34;47.99
67931;BME280;54726;52.000;5.954;2022-09-03T00:16:25;100779.06;;;16.20;47.78
67931;BME280;54726;52.000;5.954;2022-09-03T00:17:31;100806.63;;;16.34;47.76
67931;BME280;54726;52.000;5.954;2022-09-03T00:18:34;100807.50;;;16.35;47.82
67931;BME280;54726;52.000;5.954;2022-09-03T00:19:40;100804.94;;;16.33;47.81
67931;BME280;54726;52.000;5.954;2022-09-03T00:20:46;100795.47;;;16.28;48.02
67931;BME280;54726;52.000;5.954;2022-09-03T00:21:52;100803.19;;;16.32;48.21
67931;BME280;54726;52.000;5.954;2022-09-03T00:22:56;100803.31;;;16.31;47.82
67931;BME280;54726;52.000;5.954;2022-09-03T00:23:58;100799.78;;;16.30;48.07
67931;BME280;54726;52.000;5.954;2022-09-03T00:25:03;100794.06;;;16.22;48.36
67931;BME280;54726;52.000;5.954;2022-09-03T00:26:15;100805.34;;;16.27;48.41
67931;BME280;54726;52.000;5.954;2022-09-03T00:27:21;100804.66;;;16.24;48.05
67931;BME280;54726;52.000;5.954;2022-09-03T00:28:26;100802.94;;;16.23;48.25
67931;BME280;54726;52.000;5.954;2022-09-03T00:29:34;100800.34;;;16.21;48.14
67931;BME280;54726;52.000;5.954;2022-09-03T00:30:35;100802.31;;;16.19;48.22
67931;BME280;54726;52.000;5.954;2022-09-03T00:31:38;100801.41;;;16.19;48.27
67931;BME280;54726;52.000;5.954;2022-09-03T00:32:41;100808.59;;;16.18;48.29
67931;BME280;54726;52.000;5.954;2022-09-03T00:33:45;100798.09;;;16.15;48.57
67931;BME280;54726;52.000;5.954;2022-09-03T00:34:50;100798.28;;;16.12;48.31
67931;BME280;54726;52.000;5.954;2022-09-03T00:36:05;100806.50;;;16.09;48.38
67931;BME280;54726;52.000;5.954;2022-09-03T00:37:09;100806.72;;;16.06;48.80
67931;BME280;54726;52.000;5.954;2022-09-03T00:38:10;100812.91;;;16.06;48.73
67931;BME280;54726;52.000;5.954;2022-09-03T00:39:12;100805.88;;;16.05;48.75
67931;BME280;54726;52.000;5.954;2022-09-03T00:40:23;100807.69;;;16.05;48.80
67931;BME280;54726;52.000;5.954;2022-09-03T00:41:32;100808.63;;;16.04;48.64
67931;BME280;54726;52.000;5.954;2022-09-03T00:42:41;100812.25;;;16.03;48.69
67931;BME280;54726;52.000;5.954;2022-09-03T00:43:56;100814.28;;;15.99;48.69
67931;BME280;54726;52.000;5.954;2022-09-03T00:45:11;100804.06;;;15.92;48.90
67931;BME280;54726;52.000;5.954;2022-09-03T00:46:17;100805.00;;;15.91;48.92
67931;BME280;54726;52.000;5.954;2022-09-03T00:47:26;100806.75;;;15.92;48.75
67931;BME280;54726;52.000;5.954;2022-09-03T00:48:33;100802.44;;;15.89;49.07
67931;BME280;54726;52.000;5.954;2022-09-03T00:49:42;100807.78;;;15.89;49.06
67931;BME280;54726;52.000;5.954;2022-09-03T00:50:58;100808.75;;;15.88;49.09
67931;BME280;54726;52.000;5.954;2022-09-03T00:52:06;100815.91;;;15.87;49.07
67931;BME280;54726;52.000;5.954;2022-09-03T00:53:16;100801.69;;;15.87;49.08
67931;BME280;54726;52.000;5.954;2022-09-03T00:54:27;100807.13;;;15.85;49.06
67931;BME280;54726;52.000;5.954;2022-09-03T00:55:37;100808.06;;;15.84;49.11
67931;BME280;54726;52.000;5.954;2022-09-03T00:56:45;100801.88;;;15.84;49.44
67931;BME280;54726;52.000;5.954;2022-09-03T00:57:56;100798.16;;;15.86;49.32
67931;BME280;54726;52.000;5.954;2022-09-03T00:59:10;100801.09;;;15.82;49.22
67931;BME280;54726;52.000;5.954;2022-09-03T01:00:14;100799.19;;;15.84;49.22
67931;BME280;54726;52.000;5.954;2022-09-03T01:01:19;100801.03;;;15.83;49.37
67931;BME280;54726;52.000;5.954;2022-09-03T01:02:25;100808.06;;;15.84;49.24
67931;BME280;54726;52.000;5.954;2022-09-03T01:03:34;100793.28;;;15.79;49.24
67931;BME280;54726;52.000;5.954;2022-09-03T01:04:47;100801.41;;;15.77;49.09
67931;BME280;54726;52.000;5.954;2022-09-03T01:06:06;100812.31;;;15.74;49.41
67931;BME280;54726;52.000;5.954;2022-09-03T01:07:16;100800.06;;;15.70;49.85
67931;BME280;54726;52.000;5.954;2022-09-03T01:08:31;100806.38;;;15.69;49.51
67931;BME280;54726;52.000;5.954;2022-09-03T01:09:46;100796.97;;;15.62;49.26
67931;BME280;54726;52.000;5.954;2022-09-03T01:10:54;100801.47;;;15.61;49.55
67931;BME280;54726;52.000;5.954;2022-09-03T01:12:00;100796.13;;;15.61;49.52
67931;BME280;54726;52.000;5.954;2022-09-03T01:13:09;100805.00;;;15.62;49.78
67931;BME280;54726;52.000;5.954;2022-09-03T01:14:21;100801.47;;;15.61;49.73
67931;BME280;54726;52.000;5.954;2022-09-03T01:15:29;100800.63;;;15.61;49.66
67931;BME280;54726;52.000;5.954;2022-09-03T01:16:41;100805.97;;;15.61;49.54
67931;BME280;54726;52.000;5.954;2022-09-03T01:17:53;100799.06;;;15.57;49.79
67931;BME280;54726;52.000;5.954;2022-09-03T01:19:04;100799.06;;;15.57;50.06
67931;BME280;54726;52.000;5.954;2022-09-03T01:20:28;100808.06;;;15.56;49.95
67931;BME280;54726;52.000;5.954;2022-09-03T01:22:05;100802.91;;;15.53;49.95
67931;BME280;54726;52.000;5.954;2022-09-03T01:23:38;100804.03;;;15.49;49.92
67931;BME280;54726;52.000;5.954;2022-09-03T01:24:58;100798.88;;;15.45;49.62
67931;BME280;54726;52.000;5.954;2022-09-03T01:26:15;100813.22;;;15.44;49.94
67931;BME280;54726;52.000;5.954;2022-09-03T01:27:31;100802.59;;;15.43;49.60
67931;BME280;54726;52.000;5.954;2022-09-03T01:28:49;100809.19;;;15.37;50.01
67931;BME280;54726;52.000;5.954;2022-09-03T01:29:55;100812.44;;;15.42;50.08
67931;BME280;54726;52.000;5.954;2022-09-03T01:31:07;100806.91;;;15.45;49.95
67931;BME280;54726;52.000;5.954;2022-09-03T01:32:14;100795.34;;;15.45;50.13
67931;BME280;54726;52.000;5.954;2022-09-03T01:33:22;100799.56;;;15.49;50.01
67931;BME280;54726;52.000;5.954;2022-09-03T01:34:35;100810.16;;;15.51;49.98
67931;BME280;54726;52.000;5.954;2022-09-03T01:35:44;100813.03;;;15.48;50.14
67931;BME280;54726;52.000;5.954;2022-09-03T01:36:52;100804.81;;;15.36;50.00
67931;BME280;54726;52.000;5.954;2022-09-03T01:38:06;100812.63;;;15.39;50.24
67931;BME280;54726;52.000;5.954;2022-09-03T01:39:12;100807.41;;;15.38;50.11
67931;BME280;54726;52.000;5.954;2022-09-03T01:40:20;100805.00;;;15.33;50.36
67931;BME280;54726;52.000;5.954;2022-09-03T01:41:33;100807.84;;;15.30;50.23
67931;BME280;54726;52.000;5.954;2022-09-03T01:42:45;100812.53;;;15.27;50.34
67931;BME280;54726;52.000;5.954;2022-09-03T01:43:57;100813.38;;;15.27;50.61
67931;BME280;54726;52.000;5.954;2022-09-03T01:46:23;100801.53;;;15.17;50.62
67931;BME280;54726;52.000;5.954;2022-09-03T01:47:29;100813.00;;;15.19;50.81
67931;BME280;54726;52.000;5.954;2022-09-03T01:48:41;100805.84;;;15.19;51.17
67931;BME280;54726;52.000;5.954;2022-09-03T01:49:46;100810.31;;;15.19;50.84
67931;BME280;54726;52.000;5.954;2022-09-03T01:50:54;100807.72;;;15.17;50.82
67931;BME280;54726;52.000;5.954;2022-09-03T01:52:02;100788.63;;;15.09;50.72
67931;BME280;54726;52.000;5.954;2022-09-03T01:53:11;100806.22;;;15.13;50.92
67931;BME280;54726;52.000;5.954;2022-09-03T01:54:25;100808.28;;;15.08;51.22
67931;BME280;54726;52.000;5.954;2022-09-03T01:55:31;100799.88;;;15.00;51.02
67931;BME280;54726;52.000;5.954;2022-09-03T01:56:44;100816.56;;;15.04;51.21
67931;BME280;54726;52.000;5.954;2022-09-03T01:57:52;100813.16;;;15.02;51.36
67931;BME280;54726;52.000;5.954;2022-09-03T01:59:02;100809.72;;;14.99;51.27
67931;BME280;54726;52.000;5.954;2022-09-03T02:00:06;100788.19;;;14.87;51.67
67931;BME280;54726;52.000;5.954;2022-09-03T02:01:12;100815.03;;;14.99;51.25
67931;BME280;54726;52.000;5.954;2022-09-03T02:02:17;100809.72;;;14.99;51.17
67931;BME280;54726;52.000;5.954;2022-09-03T02:03:19;100814.19;;;14.99;51.56
67931;BME280;54726;52.000;5.954;2022-09-03T02:04:22;100808.94;;;14.97;51.56
67931;BME280;54726;52.000;5.954;2022-09-03T02:05:24;100816.94;;;14.97;51.73
67931;BME280;54726;52.000;5.954;2022-09-03T02:06:26;100817.72;;;14.99;51.53
67931;BME280;54726;52.000;5.954;2022-09-03T02:07:30;100808.00;;;14.98;51.43
67931;BME280;54726;52.000;5.954;2022-09-03T02:08:31;100815.13;;;14.98;51.63
67931;BME280;54726;52.000;5.954;2022-09-03T02:09:32;100803.97;;;14.91;51.60
67931;BME280;54726;52.000;5.954;2022-09-03T02:10:37;100808.34;;;14.92;51.24
67931;BME280;54726;52.000;5.954;2022-09-03T02:11:39;100811.00;;;14.92;51.93
67931;BME280;54726;52.000;5.954;2022-09-03T02:12:43;100811.19;;;14.89;51.84
67931;BME280;54726;52.000;5.954;2022-09-03T02:13:48;100809.56;;;14.87;51.90
67931;BME280;54726;52.000;5.954;2022-09-03T02:14:51;100815.78;;;14.87;52.16
67931;BME280;54726;52.000;5.954;2022-09-03T02:15:52;100813.13;;;14.87;51.76
67931;BME280;54726;52.000;5.954;2022-09-03T02:16:56;100817.69;;;14.85;51.92
67931;BME280;54726;52.000;5.954;2022-09-03T02:18:00;100813.38;;;14.83;52.02
67931;BME280;54726;52.000;5.954;2022-09-03T02:19:03;100818.91;;;14.80;52.29
67931;BME280;54726;52.000;5.954;2022-09-03T02:20:07;100815.56;;;14.76;52.57
67931;BME280;54726;52.000;5.954;2022-09-03T02:21:09;100812.88;;;14.76;52.42
67931;BME280;54726;52.000;5.954;2022-09-03T02:22:11;100816.50;;;14.75;52.16
67931;BME280;54726;52.000;5.954;2022-09-03T02:23:12;100813.94;;;14.73;52.51
67931;BME280;54726;52.000;5.954;2022-09-03T02:24:12;100812.38;;;14.69;52.36
67931;BME280;54726;52.000;5.954;2022-09-03T02:25:13;100816.66;;;14.72;52.36
67931;BME280;54726;52.000;5.954;2022-09-03T02:26:17;100813.22;;;14.70;52.47
67931;BME280;54726;52.000;5.954;2022-09-03T02:27:18;100808.00;;;14.68;52.32
67931;BME280;54726;52.000;5.954;2022-09-03T02:28:19;100815.81;;;14.71;52.22
67931;BME280;54726;52.000;5.954;2022-09-03T02:29:20;100817.63;;;14.71;52.46
67931;BME280;54726;52.000;5.954;2022-09-03T02:30:22;100814.97;;;14.71;52.53
67931;BME280;54726;52.000;5.954;2022-09-03T02:31:23;100812.38;;;14.69;52.31
67931;BME280;54726;52.000;5.954;2022-09-03T02:32:23;100804.78;;;14.62;52.54
67931;BME280;54726;52.000;5.954;2022-09-03T02:33:24;100808.19;;;14.65;52.95
67931;BME280;54726;52.000;5.954;2022-09-03T02:34:25;100787.66;;;14.50;52.58
67931;BME280;54726;52.000;5.954;2022-09-03T02:35:25;100810.06;;;14.63;52.61
67931;BME280;54726;52.000;5.954;2022-09-03T02:36:31;100811.88;;;14.63;52.62
67931;BME280;54726;52.000;5.954;2022-09-03T02:37:32;100809.28;;;14.61;52.56
67931;BME280;54726;52.000;5.954;2022-09-03T02:38:33;100800.78;;;14.54;52.60
67931;BME280;54726;52.000;5.954;2022-09-03T02:39:34;100809.56;;;14.57;52.75
67931;BME280;54726;52.000;5.954;2022-09-03T02:40:34;100797.56;;;14.48;52.80
67931;BME280;54726;52.000;5.954;2022-09-03T02:41:34;100803.59;;;14.51;52.76
67931;BME280;54726;52.000;5.954;2022-09-03T02:42:35;100800.16;;;14.49;52.86
67931;BME280;54726;52.000;5.954;2022-09-03T02:43:38;100808.94;;;14.51;52.80
67931;BME280;54726;52.000;5.954;2022-09-03T02:44:43;100803.06;;;14.45;53.05
67931;BME280;54726;52.000;5.954;2022-09-03T02:45:49;100757.16;;;14.24;52.79
67931;BME280;54726;52.000;5.954;2022-09-03T02:46:56;100806.34;;;14.50;53.05
67931;BME280;54726;52.000;5.954;2022-09-03T02:47:59;100809.72;;;14.53;52.80
67931;BME280;54726;52.000;5.954;2022-09-03T02:48:59;100814.13;;;14.54;52.86
67931;BME280;54726;52.000;5.954;2022-09-03T02:50:00;100805.50;;;14.49;52.90
67931;BME280;54726;52.000;5.954;2022-09-03T02:51:00;100811.59;;;14.51;53.02
67931;BME280;54726;52.000;5.954;2022-09-03T02:52:02;100806.34;;;14.50;52.90
67931;BME280;54726;52.000;5.954;2022-09-03T02:53:03;100808.94;;;14.51;52.92
67931;BME280;54726;52.000;5.954;2022-09-03T02:54:04;100802.03;;;14.47;52.98
67931;BME280;54726;52.000;5.954;2022-09-03T02:55:06;100807.47;;;14.46;52.96
67931;BME280;54726;52.000;5.954;2022-09-03T02:56:06;100811.19;;;14.43;53.01
67931;BME280;54726;52.000;5.954;2022-09-03T02:57:08;100810.41;;;14.41;53.29
67931;BME280;54726;52.000;5.954;2022-09-03T02:58:08;100809.63;;;14.39;53.28
67931;BME280;54726;52.000;5.954;2022-09-03T02:59:09;100794.81;;;14.33;53.21
67931;BME280;54726;52.000;5.954;2022-09-03T03:00:10;100801.03;;;14.34;53.37
67931;BME280;54726;52.000;5.954;2022-09-03T03:01:12;100798.53;;;14.31;53.33
67931;BME280;54726;52.000;5.954;2022-09-03T03:02:13;100799.47;;;14.30;53.54
67931;BME280;54726;52.000;5.954;2022-09-03T03:03:13;100801.28;;;14.29;53.71
67931;BME280;54726;52.000;5.954;2022-09-03T03:04:14;100804.81;;;14.30;53.35
67931;BME280;54726;52.000;5.954;2022-09-03T03:05:22;100800.34;;;14.30;53.66
67931;BME280;54726;52.000;5.954;2022-09-03T03:06:24;100803.84;;;14.31;53.46
67931;BME280;54726;52.000;5.954;2022-09-03T03:07:25;100804.81;;;14.30;53.37
67931;BME280;54726;52.000;5.954;2022-09-03T03:08:27;100803.09;;;14.29;53.40
67931;BME280;54726;52.000;5.954;2022-09-03T03:09:28;100790.13;;;14.23;53.51
67931;BME280;54726;52.000;5.954;2022-09-03T03:10:28;100803.28;;;14.26;53.79
67931;BME280;54726;52.000;5.954;2022-09-03T03:11:29;100798.81;;;14.26;53.92
67931;BME280;54726;52.000;5.954;2022-09-03T03:12:29;100800.09;;;14.35;53.58
67931;BME280;54726;52.000;5.954;2022-09-03T03:13:30;100798.44;;;14.32;53.40
67931;BME280;54726;52.000;5.954;2022-09-03T03:14:30;100795.72;;;14.34;53.38
67931;BME280;54726;52.000;5.954;2022-09-03T03:15:31;100792.34;;;14.30;53.55
67931;BME280;54726;52.000;5.954;2022-09-03T03:16:33;100794.16;;;14.30;53.53
67931;BME280;54726;52.000;5.954;2022-09-03T03:17:33;100788.03;;;14.28;53.73
67931;BME280;54726;52.000;5.954;2022-09-03T03:18:34;100789.00;;;14.27;53.58
67931;BME280;54726;52.000;5.954;2022-09-03T03:19:34;100789.25;;;14.22;53.93
67931;BME280;54726;52.000;5.954;2022-09-03T03:20:34;100793.53;;;14.25;53.62
67931;BME280;54726;52.000;5.954;2022-09-03T03:21:35;100791.06;;;14.22;53.70
67931;BME280;54726;52.000;5.954;2022-09-03T03:22:35;100784.19;;;14.18;53.91
67931;BME280;54726;52.000;5.954;2022-09-03T03:23:37;100787.78;;;14.17;53.91
67931;BME280;54726;52.000;5.954;2022-09-03T03:24:37;100776.53;;;14.12;54.04
67931;BME280;54726;52.000;5.954;2022-09-03T03:25:38;100787.03;;;14.15;54.08
67931;BME280;54726;52.000;5.954;2022-09-03T03:26:39;100787.59;;;14.20;54.03
67931;BME280;54726;52.000;5.954;2022-09-03T03:27:39;100782.44;;;14.17;53.88
67931;BME280;54726;52.000;5.954;2022-09-03T03:28:40;100796.38;;;14.22;53.91
67931;BME280;54726;52.000;5.954;2022-09-03T03:29:40;100792.19;;;14.18;54.10
67931;BME280;54726;52.000;5.954;2022-09-03T03:30:41;100792.25;;;14.16;54.05
67931;BME280;54726;52.000;5.954;2022-09-03T03:31:43;100792.44;;;14.13;53.87
67931;BME280;54726;52.000;5.954;2022-09-03T03:32:43;100790.72;;;14.12;54.12
67931;BME280;54726;52.000;5.954;2022-09-03T03:33:49;100798.81;;;14.10;54.33
67931;BME280;54726;52.000;5.954;2022-09-03T03:34:50;100789.16;;;14.08;54.28
67931;BME280;54726;52.000;5.954;2022-09-03T03:35:51;100780.72;;;14.00;54.43
67931;BME280;54726;52.000;5.954;2022-09-03T03:36:51;100787.53;;;14.05;54.37
67931;BME280;54726;52.000;5.954;2022-09-03T03:37:51;100778.94;;;14.00;54.25
67931;BME280;54726;52.000;5.954;2022-09-03T03:38:52;100791.84;;;14.08;54.39
67931;BME280;54726;52.000;5.954;2022-09-03T03:39:53;100798.91;;;14.09;54.28
67931;BME280;54726;52.000;5.954;2022-09-03T03:40:53;100798.91;;;14.09;53.92
67931;BME280;54726;52.000;5.954;2022-09-03T03:41:54;100799.16;;;14.04;54.32
67931;BME280;54726;52.000;5.954;2022-09-03T03:42:56;100794.00;;;14.01;54.30
67931;BME280;54726;52.000;5.954;2022-09-03T03:43:58;100796.91;;;13.97;54.50
67931;BME280;54726;52.000;5.954;2022-09-03T03:44:59;100793.38;;;13.96;54.39
67931;BME280;54726;52.000;5.954;2022-09-03T03:45:59;100789.69;;;13.99;54.52
67931;BME280;54726;52.000;5.954;2022-09-03T03:47:01;100785.56;;;13.93;54.29
67931;BME280;54726;52.000;5.954;2022-09-03T03:48:02;100791.56;;;13.97;54.79
67931;BME280;54726;52.000;5.954;2022-09-03T03:49:03;100795.88;;;13.99;54.59
67931;BME280;54726;52.000;5.954;2022-09-03T03:50:05;100793.13;;;14.01;54.58
67931;BME280;54726;52.000;5.954;2022-09-03T03:51:07;100794.00;;;14.01;54.43
67931;BME280;54726;52.000;5.954;2022-09-03T03:52:08;100795.69;;;14.02;54.41
67931;BME280;54726;52.000;5.954;2022-09-03T03:53:09;100796.03;;;13.96;54.51
67931;BME280;54726;52.000;5.954;2022-09-03T03:54:09;100784.69;;;13.93;54.55
67931;BME280;54726;52.000;5.954;2022-09-03T03:55:10;100797.94;;;13.94;54.31
67931;BME280;54726;52.000;5.954;2022-09-03T03:56:12;100796.41;;;13.90;54.80
67931;BME280;54726;52.000;5.954;2022-09-03T03:57:13;100798.28;;;13.88;54.90
67931;BME280;54726;52.000;5.954;2022-09-03T03:58:13;100796.56;;;13.87;54.90
67931;BME280;54726;52.000;5.954;2022-09-03T03:59:13;100780.91;;;13.81;54.82
67931;BME280;54726;52.000;5.954;2022-09-03T04:00:15;100796.41;;;13.90;54.84
67931;BME280;54726;52.000;5.954;2022-09-03T04:01:17;100789.31;;;13.89;54.72
67931;BME280;54726;52.000;5.954;2022-09-03T04:02:19;100798.03;;;13.93;54.75
67931;BME280;54726;52.000;5.954;2022-09-03T04:03:20;100790.09;;;13.91;54.72
67931;BME280;54726;52.000;5.954;2022-09-03T04:04:20;100784.16;;;13.86;54.68
67931;BME280;54726;52.000;5.954;2022-09-03T04:05:20;100791.22;;;13.87;54.64
67931;BME280;54726;52.000;5.954;2022-09-03T04:06:21;100780.03;;;13.80;54.79
67931;BME280;54726;52.000;5.954;2022-09-03T04:07:21;100790.53;;;13.83;54.83
67931;BME280;54726;52.000;5.954;2022-09-03T04:08:22;100785.28;;;13.82;54.96
67931;BME280;54726;52.000;5.954;2022-09-03T04:09:22;100788.91;;;13.81;54.91
67931;BME280;54726;52.000;5.954;2022-09-03T04:10:23;100789.84;;;13.80;55.06
67931;BME280;54726;52.000;5.954;2022-09-03T04:11:24;100778.56;;;13.75;54.97
67931;BME280;54726;52.000;5.954;2022-09-03T04:12:25;100779.34;;;13.77;54.97
67931;BME280;54726;52.000;5.954;2022-09-03T04:13:27;100782.97;;;13.76;55.08
67931;BME280;54726;52.000;5.954;2022-09-03T04:14:28;100787.44;;;13.75;55.09
67931;BME280;54726;52.000;5.954;2022-09-03T04:15:28;100784.84;;;13.74;55.38
67931;BME280;54726;52.000;5.954;2022-09-03T04:16:29;100771.00;;;13.67;54.98
67931;BME280;54726;52.000;5.954;2022-09-03T04:17:31;100777.03;;;13.71;54.95
67931;BME280;54726;52.000;5.954;2022-09-03T04:18:32;100784.00;;;13.73;55.13
67931;BME280;54726;52.000;5.954;2022-09-03T04:19:32;100783.13;;;13.73;55.07
67931;BME280;54726;52.000;5.954;2022-09-03T04:20:34;100786.38;;;13.78;55.04
67931;BME280;54726;52.000;5.954;2022-09-03T04:21:35;100784.69;;;13.77;54.93
67931;BME280;54726;52.000;5.954;2022-09-03T04:22:35;100783.13;;;13.73;54.89
67931;BME280;54726;52.000;5.954;2022-09-03T04:23:37;100784.06;;;13.72;55.12
67931;BME280;54726;52.000;5.954;2022-09-03T04:24:38;100780.53;;;13.71;55.26
67931;BME280;54726;52.000;5.954;2022-09-03T04:25:38;100746.38;;;13.46;55.37
67931;BME280;54726;52.000;5.954;2022-09-03T04:26:38;100781.66;;;13.67;55.92
67931;BME280;54726;52.000;5.954;2022-09-03T04:27:39;100781.50;;;13.70;55.65
67931;BME280;54726;52.000;5.954;2022-09-03T04:28:39;100775.56;;;13.65;55.37
67931;BME280;54726;52.000;5.954;2022-09-03T04:29:40;100780.66;;;13.70;55.27
67931;BME280;54726;52.000;5.954;2022-09-03T04:30:40;100788.78;;;13.66;55.61
67931;BME280;54726;52.000;5.954;2022-09-03T04:31:41;100779.06;;;13.65;55.54
67931;BME280;54726;52.000;5.954;2022-09-03T04:32:43;100783.44;;;13.66;55.50
67931;BME280;54726;52.000;5.954;2022-09-03T04:33:43;100781.75;;;13.65;55.45
67931;BME280;54726;52.000;5.954;2022-09-03T04:34:43;100771.41;;;13.59;55.39
67931;BME280;54726;52.000;5.954;2022-09-03T04:35:44;100786.28;;;13.63;55.35
67931;BME280;54726;52.000;5.954;2022-09-03T04:36:44;100781.91;;;13.62;55.55
67931;BME280;54726;52.000;5.954;2022-09-03T04:37:45;100779.06;;;13.65;55.65
67931;BME280;54726;52.000;5.954;2022-09-03T04:38:47;100780.78;;;13.66;55.35
67931;BME280;54726;52.000;5.954;2022-09-03T04:39:48;100780.88;;;13.65;55.33
67931;BME280;54726;52.000;5.954;2022-09-03T04:40:51;100768.91;;;13.56;55.40
67931;BME280;54726;52.000;5.954;2022-09-03T04:41:51;100773.91;;;13.62;55.81
67931;BME280;54726;52.000;5.954;2022-09-03T04:42:56;100784.50;;;13.64;55.98
67931;BME280;54726;52.000;5.954;2022-09-03T04:43:57;100777.38;;;13.64;55.47
67931;BME280;54726;52.000;5.954;2022-09-03T04:44:58;100781.91;;;13.62;55.66
67931;BME280;54726;52.000;5.954;2022-09-03T04:45:59;100783.78;;;13.60;55.80
67931;BME280;54726;52.000;5.954;2022-09-03T04:47:00;100781.13;;;13.60;55.72
67931;BME280;54726;52.000;5.954;2022-09-03T04:48:03;100783.09;;;13.57;55.52
67931;BME280;54726;52.000;5.954;2022-09-03T04:49:03;100779.66;;;13.55;55.75
67931;BME280;54726;52.000;5.954;2022-09-03T04:50:04;100782.41;;;13.53;55.53
67931;BME280;54726;52.000;5.954;2022-09-03T04:51:07;100777.94;;;13.54;55.82
67931;BME280;54726;52.000;5.954;2022-09-03T04:52:08;100782.31;;;13.55;55.62
67931;BME280;54726;52.000;5.954;2022-09-03T04:53:08;100777.25;;;13.50;55.75
67931;BME280;54726;52.000;5.954;2022-09-03T04:54:09;100786.09;;;13.51;55.85
67931;BME280;54726;52.000;5.954;2022-09-03T04:55:09;100786.16;;;13.49;55.74
67931;BME280;54726;52.000;5.954;2022-09-03T04:56:14;100787.91;;;13.50;56.01
67931;BME280;54726;52.000;5.954;2022-09-03T04:57:14;100782.47;;;13.52;55.89
67931;BME280;54726;52.000;5.954;2022-09-03T04:58:15;100788.66;;;13.52;56.18
67931;BME280;54726;52.000;5.954;2022-09-03T04:59:15;100779.75;;;13.53;55.78
67931;BME280;54726;52.000;5.954;2022-09-03T05:00:16;100790.47;;;13.52;55.70
67931;BME280;54726;52.000;5.954;2022-09-03T05:01:18;100786.09;;;13.51;55.82
67931;BME280;54726;52.000;5.954;2022-09-03T05:02:19;100789.63;;;13.51;55.42
67931;BME280;54726;52.000;5.954;2022-09-03T05:03:21;100787.03;;;13.50;56.02
67931;BME280;54726;52.000;5.954;2022-09-03T05:04:21;100785.16;;;13.52;55.86
67931;BME280;54726;52.000;5.954;2022-09-03T05:05:22;100778.91;;;13.53;55.96
67931;BME280;54726;52.000;5.954;2022-09-03T05:06:22;100785.94;;;13.54;55.77
67931;BME280;54726;52.000;5.954;2022-09-03T05:07:23;100782.47;;;13.52;55.76
67931;BME280;54726;52.000;5.954;2022-09-03T05:08:24;100779.13;;;13.48;56.00
67931;BME280;54726;52.000;5.954;2022-09-03T05:09:24;100780.84;;;13.49;55.85
67931;BME280;54726;52.000;5.954;2022-09-03T05:10:24;100787.91;;;13.50;56.12
67931;BME280;54726;52.000;5.954;2022-09-03T05:11:26;100786.97;;;13.51;55.71
67931;BME280;54726;52.000;5.954;2022-09-03T05:12:27;100781.69;;;13.50;55.94
67931;BME280;54726;52.000;5.954;2022-09-03T05:13:27;100779.31;;;13.45;55.96
67931;BME280;54726;52.000;5.954;2022-09-03T05:14:28;100783.59;;;13.48;55.88
67931;BME280;54726;52.000;5.954;2022-09-03T05:15:29;100780.94;;;13.48;56.06
67931;BME280;54726;52.000;5.954;2022-09-03T05:16:31;100782.75;;;13.47;56.18
67931;BME280;54726;52.000;5.954;2022-09-03T05:17:31;100788.84;;;13.49;55.85
67931;BME280;54726;52.000;5.954;2022-09-03T05:18:34;100777.44;;;13.47;55.67
67931;BME280;54726;52.000;5.954;2022-09-03T05:19:34;100782.13;;;13.42;56.13
67931;BME280;54726;52.000;5.954;2022-09-03T05:20:35;100784.47;;;13.48;55.98
67931;BME280;54726;52.000;5.954;2022-09-03T05:21:36;100782.75;;;13.47;56.07
67931;BME280;54726;52.000;5.954;2022-09-03T05:22:36;100784.47;;;13.48;55.98
67931;BME280;54726;52.000;5.954;2022-09-03T05:23:38;100784.47;;;13.48;55.93
67931;BME280;54726;52.000;5.954;2022-09-03T05:24:39;100787.13;;;13.48;56.12
67931;BME280;54726;52.000;5.954;2022-09-03T05:25:39;100783.78;;;13.45;56.15
67931;BME280;54726;52.000;5.954;2022-09-03T05:26:40;100791.50;;;13.49;56.14
67931;BME280;54726;52.000;5.954;2022-09-03T05:27:40;100789.63;;;13.51;56.06
67931;BME280;54726;52.000;5.954;2022-09-03T05:28:41;100787.81;;;13.52;55.96
67931;BME280;54726;52.000;5.954;2022-09-03T05:29:42;100788.66;;;13.52;56.13
67931;BME280;54726;52.000;5.954;2022-09-03T05:30:42;100790.47;;;13.52;56.14
67931;BME280;54726;52.000;5.954;2022-09-03T05:31:43;100780.84;;;13.49;56.07
67931;BME280;54726;52.000;5.954;2022-09-03T05:32:43;100789.63;;;13.51;55.93
67931;BME280;54726;52.000;5.954;2022-09-03T05:33:47;100790.47;;;13.52;56.14
67931;BME280;54726;52.000;5.954;2022-09-03T05:34:48;100786.97;;;13.51;56.25
67931;BME280;54726;52.000;5.954;2022-09-03T05:35:48;100785.16;;;13.52;56.27